Time;durP1;ratioP1;P1;durP2;ratioP2;P2;SDS_P1;SDS_P2;PMS_P1;PMS_P2;Temp;Humidity;BMP_temperature;BMP_pressure;BME280_temperature;BME280_humidity;BME280_pressure;Samples;Min_cycle;Max_cycle;Signal;HPM_P1;HPM_P2
2022/06/23 00:02:30;;;;;;;1.13;0.60;;;;;;;16.34;73.55;100166.59;4987419;28;20040;-83
2022/06/23 00:05:00;;;;;;;1.67;0.60;;;;;;;16.33;73.75;100166.78;5071073;28;20040;-83
2022/06/23 00:07:30;;;;;;;0.80;0.65;;;;;;;16.30;73.78;100159.16;5067910;28;20025;-82
2022/06/23 00:10:26;;;;;;;0.98;0.40;;;;;;;16.20;73.72;100167.47;5054862;28;20059;-83
2022/06/23 00:12:52;;;;;;;;;;;;;;;16.09;74.29;100158.94;5051455;28;20036;-82
2022/06/23 00:15:35;;;;;;;1.45;0.50;;;;;;;16.18;74.04;100156.97;5065905;28;19916;-82
2022/06/23 00:18:04;;;;;;;2.58;0.60;;;;;;;16.23;73.59;100154.59;5034871;28;20400;-83
2022/06/23 00:20:38;;;;;;;6.45;0.70;;;;;;;16.27;73.48;100159.53;5061020;28;20028;-83
2022/06/23 00:23:11;;;;;;;8.48;1.17;;;;;;;16.30;73.40;100153.81;5031268;28;20040;-83
2022/06/23 00:25:56;;;;;;;1.80;0.60;;;;;;;16.31;73.21;100153.63;5052978;28;20056;-83
2022/06/23 00:28:31;;;;;;;3.78;0.40;;;;;;;16.35;72.98;100146.09;5053545;28;20128;-83
2022/06/23 00:31:02;;;;;;;1.83;0.67;;;;;;;16.33;73.10;100143.63;5021267;28;20035;-83
2022/06/23 00:33:38;;;;;;;1.75;0.70;;;;;;;16.30;73.01;100135.16;5042718;28;20033;-83
2022/06/23 00:36:16;;;;;;;1.42;0.70;;;;;;;16.29;73.28;100138.84;5059765;28;20573;-83
2022/06/23 00:38:42;;;;;;;1.30;0.40;;;;;;;16.35;72.83;100138.91;5069567;28;20493;-83
2022/06/23 00:41:21;;;;;;;0.60;0.43;;;;;;;16.41;72.67;100144.47;5037507;28;20040;-83
2022/06/23 00:43:50;;;;;;;1.25;0.52;;;;;;;16.42;72.58;100133.63;5055190;28;20035;-83
2022/06/23 00:46:23;;;;;;;2.03;0.60;;;;;;;16.41;72.42;100129.31;5045478;28;20056;-83
2022/06/23 00:49:06;;;;;;;1.50;0.50;;;;;;;16.42;72.33;100133.63;5036347;28;20082;-83
2022/06/23 00:51:42;;;;;;;0.50;0.40;;;;;;;16.38;72.14;100129.69;5053561;28;20029;-83
2022/06/23 00:54:29;;;;;;;0.45;0.45;;;;;;;16.29;72.09;100123.69;5064607;28;20040;-82
2022/06/23 00:57:03;;;;;;;1.27;0.50;;;;;;;16.21;72.31;100129.13;5067252;28;20115;-82
2022/06/23 00:59:51;;;;;;;0.60;0.50;;;;;;;16.12;72.40;100123.91;5033420;28;20397;-82
2022/06/23 01:02:26;;;;;;;3.08;0.60;;;;;;;16.07;72.59;100123.66;5036487;28;20039;-83
2022/06/23 01:05:10;;;;;;;3.97;0.60;;;;;;;16.04;72.52;100109.88;5068859;28;20021;-83
2022/06/23 01:07:54;;;;;;;1.08;0.40;;;;;;;15.98;72.56;100109.63;5064153;28;20090;-83
2022/06/23 01:10:28;;;;;;;1.38;0.40;;;;;;;15.97;72.60;100105.28;5053388;28;20552;-83
2022/06/23 01:13:12;;;;;;;0.50;0.40;;;;;;;16.02;72.46;100096.75;5034166;28;20114;-83
2022/06/23 01:15:50;;;;;;;2.42;0.50;;;;;;;16.03;72.34;100101.06;5070274;28;20024;-83
2022/06/23 01:18:34;;;;;;;0.50;0.50;;;;;;;15.99;72.24;100097.94;5064363;28;20039;-83
2022/06/23 01:21:05;;;;;;;0.80;0.55;;;;;;;15.91;72.50;100100.69;5052583;28;20540;-83
2022/06/23 01:23:45;;;;;;;0.93;0.50;;;;;;;15.82;72.64;100101.81;5032219;28;20045;-83
2022/06/23 01:26:35;;;;;;;1.77;0.80;;;;;;;15.79;72.56;100103.03;5052216;28;20028;-82
2022/06/23 01:29:14;;;;;;;2.67;0.70;;;;;;;15.79;72.43;100095.03;5049974;28;20086;-81
2022/06/23 01:31:46;;;;;;;6.95;0.90;;;;;;;15.75;72.69;100094.56;5036711;28;20380;-83
2022/06/23 01:34:33;;;;;;;3.00;0.70;;;;;;;15.75;72.76;100091.09;5058485;28;20421;-83
2022/06/23 01:37:05;;;;;;;1.38;0.50;;;;;;;15.73;72.88;100087.78;5070683;28;20044;-83
2022/06/23 01:39:52;;;;;;;1.88;0.60;;;;;;;15.76;72.69;100084.75;5058990;28;20036;-83
2022/06/23 01:42:48;;;;;;;2.03;0.70;;;;;;;15.72;72.41;100076.28;5052921;28;20044;-81
2022/06/23 01:45:20;;;;;;;1.25;0.70;;;;;;;15.72;72.49;100073.63;5064839;28;20054;-81
2022/06/23 01:47:45;;;;;;;0.55;0.55;;;;;;;15.72;72.62;100083.44;5061161;28;20040;-81
2022/06/23 01:50:14;;;;;;;1.80;0.90;;;;;;;15.71;72.35;100076.47;5039269;28;20047;-83
2022/06/23 01:52:41;;;;;;;1.50;0.80;;;;;;;15.63;72.53;100077.41;5070965;28;20139;-83
2022/06/23 01:55:18;;;;;;;1.17;0.80;;;;;;;15.57;72.54;100075.50;5055110;28;20036;-83
2022/06/23 01:57:57;;;;;;;1.63;0.80;;;;;;;15.48;72.53;100077.47;5052577;28;20036;-83
2022/06/23 02:00:27;;;;;;;0.93;0.68;;;;;;;15.34;73.01;100069.28;5048737;28;20108;-83
2022/06/23 02:03:11;;;;;;;0.75;0.75;;;;;;;15.27;72.98;100070.22;5073600;28;20060;-83
2022/06/23 02:05:46;;;;;;;1.20;0.65;;;;;;;15.18;72.84;100070.31;5056646;28;20090;-83
2022/06/23 02:08:36;;;;;;;5.95;1.42;;;;;;;15.06;73.23;100074.44;5072230;28;20036;-83
2022/06/23 02:11:36;;;;;;;1.52;0.80;;;;;;;14.99;73.42;100069.00;5048077;28;20032;-82
2022/06/23 02:14:30;;;;;;;3.33;0.70;;;;;;;14.94;73.67;100068.75;5069878;28;20538;-82
2022/06/23 02:17:10;;;;;;;1.08;0.60;;;;;;;14.95;73.50;100076.56;5053211;28;20036;-83
2022/06/23 02:19:45;;;;;;;2.50;0.98;;;;;;;14.95;73.50;100078.38;5037393;28;20082;-83
2022/06/23 02:22:34;;;;;;;1.48;0.70;;;;;;;14.88;73.68;100070.28;5071932;28;20043;-83
2022/06/23 02:25:03;;;;;;;1.33;0.73;;;;;;;14.79;74.01;100058.91;5038500;28;20492;-83
2022/06/23 02:27:38;;;;;;;1.15;0.80;;;;;;;14.78;74.23;100064.38;5043153;28;20107;-83
2022/06/23 02:30:05;;;;;;;2.13;0.90;;;;;;;14.65;74.30;100071.16;5051892;28;20033;-83
2022/06/23 02:32:50;;;;;;;1.98;1.10;;;;;;;14.56;74.72;100065.06;5054018;28;20029;-83
2022/06/23 02:35:48;;;;;;;2.70;1.00;;;;;;;14.49;74.70;100062.31;5049705;28;20050;-83
2022/06/23 02:38:33;;;;;;;1.95;1.15;;;;;;;14.50;75.02;100069.28;5053888;28;20032;-83
2022/06/23 02:41:02;;;;;;;4.55;1.35;;;;;;;14.51;75.06;100062.97;5035133;28;20100;-83
2022/06/23 02:43:41;;;;;;;2.30;1.40;;;;;;;14.51;74.98;100062.13;5038537;28;20041;-83
2022/06/23 02:46:37;;;;;;;2.15;1.38;;;;;;;14.43;75.14;100056.91;5045776;28;20024;-83
2022/06/23 02:49:15;;;;;;;;;;;;;;;14.32;75.65;100055.47;5049281;28;20041;-83
2022/06/23 02:52:08;;;;;;;1.17;1.08;;;;;;;14.42;75.25;100057.88;5066838;28;20325;-83
2022/06/23 02:54:55;;;;;;;2.75;1.40;;;;;;;14.50;75.14;100056.00;5052792;28;20044;-82
2022/06/23 02:57:40;;;;;;;2.53;1.60;;;;;;;14.56;74.94;100042.97;5046580;28;20785;-83
2022/06/23 03:00:31;;;;;;;2.47;1.70;;;;;;;14.60;74.98;100041.63;5051276;28;20043;-82
2022/06/23 03:03:08;;;;;;;1.58;1.35;;;;;;;14.56;75.26;100035.81;5067081;28;20044;-82
2022/06/23 03:05:55;;;;;;;2.17;1.60;;;;;;;14.59;75.26;100032.78;5054011;28;20028;-82
2022/06/23 03:08:38;;;;;;;1.67;1.58;;;;;;;14.58;75.20;100044.47;5067733;28;20032;-82
2022/06/23 03:11:09;;;;;;;1.42;1.25;;;;;;;14.57;75.32;100029.47;5044648;28;20108;-81
2022/06/23 03:13:55;;;;;;;2.15;1.65;;;;;;;14.61;75.57;100032.63;5055560;28;20052;-81
2022/06/23 03:16:37;;;;;;;1.55;1.45;;;;;;;14.57;75.66;100032.16;5071096;28;20036;-81
2022/06/23 03:19:11;;;;;;;1.67;1.58;;;;;;;14.55;75.93;100031.53;5054608;28;20040;-81
2022/06/23 03:21:59;;;;;;;1.75;1.42;;;;;;;14.56;76.13;100019.88;5069368;28;20039;-82
2022/06/23 03:24:34;;;;;;;1.60;1.40;;;;;;;14.57;76.13;100018.84;5038598;28;20505;-82
2022/06/23 03:27:19;;;;;;;5.18;1.45;;;;;;;14.60;76.04;100023.84;5061107;28;20029;-83
2022/06/23 03:29:55;;;;;;;3.03;2.10;;;;;;;14.59;76.09;100018.66;5038606;28;20037;-82
2022/06/23 03:32:35;;;;;;;2.80;1.52;;;;;;;14.57;76.42;100016.19;5071914;28;20064;-82
2022/06/23 03:35:17;;;;;;;2.72;1.98;;;;;;;14.55;76.24;100020.03;5061459;28;20044;-82
2022/06/23 03:37:55;;;;;;;3.65;1.90;;;;;;;14.55;76.36;100022.72;5047507;28;20033;-81
2022/06/23 03:43:31;;;;;;;6.55;2.10;;;;;;;14.49;76.63;100021.59;5072041;28;20389;-83
2022/06/23 03:46:14;;;;;;;2.45;2.28;;;;;;;14.50;76.56;100020.59;5048445;28;20106;-83
2022/06/23 03:48:50;;;;;;;4.93;2.25;;;;;;;14.50;76.68;100015.28;5012288;28;20447;-83
2022/06/23 03:51:40;;;;;;;3.50;2.67;;;;;;;14.50;76.83;100015.28;5042350;28;20527;-83
2022/06/23 03:54:10;;;;;;;3.70;2.83;;;;;;;14.47;77.29;100012.97;5050624;28;20191;-83
2022/06/23 03:56:52;;;;;;;4.00;2.90;;;;;;;14.46;77.55;100016.66;5060528;28;20370;-83
2022/06/23 03:59:47;;;;;;;3.53;2.80;;;;;;;14.47;77.43;100008.50;5026590;28;20039;-82
2022/06/23 04:02:22;;;;;;;3.03;2.72;;;;;;;14.51;77.66;100008.94;5051959;28;20111;-82
2022/06/23 04:04:58;;;;;;;3.50;3.05;;;;;;;14.55;77.73;100007.59;5044838;28;20119;-83
2022/06/23 04:07:30;;;;;;;3.95;2.60;;;;;;;14.61;77.58;100012.19;5054374;28;20131;-83
2022/06/23 04:10:12;;;;;;;3.60;3.30;;;;;;;14.63;77.53;100004.84;5054158;28;20545;-82
2022/06/23 04:12:45;;;;;;;3.72;3.30;;;;;;;14.60;77.85;100002.56;5056262;28;20032;-81
2022/06/23 04:15:17;;;;;;;4.35;3.50;;;;;;;14.57;78.04;99999.41;5077406;28;20818;-82
2022/06/23 04:17:55;;;;;;;4.75;3.30;;;;;;;14.56;78.26;100011.06;5054379;28;20036;-82
2022/06/23 04:20:32;;;;;;;3.45;3.15;;;;;;;14.57;78.51;100012.72;5045278;28;20036;-82
2022/06/23 04:23:04;;;;;;;5.53;4.38;;;;;;;14.59;78.35;100005.38;5053595;28;20033;-83
2022/06/23 04:25:41;;;;;;;4.00;3.30;;;;;;;14.56;78.42;100000.41;5020575;28;20052;-83
2022/06/23 04:28:33;;;;;;;4.32;3.17;;;;;;;14.53;78.63;100001.63;5053158;28;20099;-83
2022/06/23 04:31:02;;;;;;;4.40;3.95;;;;;;;14.56;78.91;100005.72;5065784;28;20041;-82
2022/06/23 04:33:29;;;;;;;3.80;3.42;;;;;;;14.58;78.98;99999.25;5043097;28;20040;-83
2022/06/23 04:36:00;;;;;;;3.78;3.25;;;;;;;14.57;78.64;99994.09;5031987;28;20077;-82
2022/06/23 04:38:37;;;;;;;9.40;3.80;;;;;;;14.54;78.89;99994.47;5051511;28;20059;-82
2022/06/23 04:41:35;;;;;;;7.25;3.88;;;;;;;14.49;79.27;99995.81;5034615;28;20119;-82
2022/06/23 04:44:07;;;;;;;4.18;3.85;;;;;;;14.55;79.50;100004.09;4983137;28;20128;-83
2022/06/23 04:46:38;;;;;;;5.43;4.38;;;;;;;14.54;79.35;99989.97;5065022;28;20026;-82
2022/06/23 04:49:19;;;;;;;7.03;4.25;;;;;;;14.52;79.19;99997.31;5025403;28;20086;-82
2022/06/23 04:51:59;;;;;;;4.05;3.70;;;;;;;14.51;79.48;99991.16;5065088;28;20049;-81
2022/06/23 04:54:32;;;;;;;6.47;4.30;;;;;;;14.50;79.71;99994.00;5031976;28;20056;-81
2022/06/23 04:57:11;;;;;;;5.72;4.32;;;;;;;14.47;79.83;99992.53;5034884;28;20123;-81
2022/06/23 04:59:39;;;;;;;4.30;3.90;;;;;;;14.43;80.02;99983.25;5051425;28;20452;-81
2022/06/23 05:02:41;;;;;;;4.20;3.67;;;;;;;14.39;79.99;99979.31;5050923;28;20080;-83
2022/06/23 05:05:35;;;;;;;5.00;3.88;;;;;;;14.38;80.25;99983.78;5048445;28;20091;-82
2022/06/23 05:08:08;;;;;;;6.28;4.47;;;;;;;14.44;80.52;99981.44;5050008;28;20115;-82
2022/06/23 05:10:45;;;;;;;4.95;4.45;;;;;;;14.45;80.15;99978.59;5051289;28;20108;-82
2022/06/23 05:13:21;;;;;;;5.85;4.32;;;;;;;14.44;80.35;99968.97;5067648;28;20032;-82
2022/06/23 05:16:02;;;;;;;5.28;4.30;;;;;;;14.47;80.44;99971.25;5052565;28;20120;-83
2022/06/23 05:18:32;;;;;;;8.43;4.43;;;;;;;14.49;80.22;99965.75;5039061;28;20067;-83
2022/06/23 05:21:04;;;;;;;4.72;3.83;;;;;;;14.52;80.32;99970.72;5049964;28;20181;-83
2022/06/23 05:23:39;;;;;;;4.13;3.72;;;;;;;14.58;80.23;99963.84;5048674;28;20025;-83
2022/06/23 05:26:36;;;;;;;5.90;4.78;;;;;;;14.59;80.11;99974.28;5066929;28;20384;-82
2022/06/23 05:29:12;;;;;;;4.22;3.72;;;;;;;14.63;80.23;99959.63;5033853;28;20047;-82
2022/06/23 05:31:40;;;;;;;4.65;4.25;;;;;;;14.62;79.94;99960.63;5052892;28;20040;-83
2022/06/23 05:34:17;;;;;;;5.75;4.40;;;;;;;14.58;80.20;99962.00;5038358;28;20041;-83
2022/06/23 05:37:17;;;;;;;6.07;4.72;;;;;;;14.54;80.39;99959.91;5057585;28;20448;-83
2022/06/23 05:40:19;;;;;;;6.35;5.15;;;;;;;14.52;80.56;99957.41;5074127;28;20032;-83
2022/06/23 05:42:51;;;;;;;5.70;5.13;;;;;;;14.49;80.75;99963.91;5072125;28;20550;-81
2022/06/23 05:45:27;;;;;;;5.93;5.20;;;;;;;14.44;80.45;99965.47;5074757;28;20025;-81
2022/06/23 05:47:54;;;;;;;;;;;;;;;14.33;80.98;99950.78;5075466;28;20086;-82
2022/06/23 05:50:43;;;;;;;6.15;5.18;;;;;;;14.43;80.73;99958.53;5073672;28;20393;-83
2022/06/23 05:53:22;;;;;;;5.85;5.32;;;;;;;14.44;80.23;99957.50;5045293;28;20032;-83
2022/06/23 05:55:59;;;;;;;5.70;4.72;;;;;;;14.45;80.58;99961.81;5070007;28;20035;-82
2022/06/23 05:58:33;;;;;;;5.80;4.90;;;;;;;14.42;80.92;99956.84;5073469;28;20515;-82
2022/06/23 06:01:16;;;;;;;6.90;4.40;;;;;;;14.44;81.10;99966.31;5056654;28;20029;-82
2022/06/23 06:04:02;;;;;;;6.10;4.78;;;;;;;14.43;81.39;99961.97;5055084;28;20040;-82
2022/06/23 06:06:28;;;;;;;;;;;;;;;14.30;81.86;99970.56;5055595;28;20040;-83
2022/06/23 06:11:47;;;;;;;7.35;5.22;;;;;;;14.50;81.09;99970.06;5074239;28;20486;-82
2022/06/23 06:14:17;;;;;;;7.28;5.10;;;;;;;14.43;81.15;99971.81;5040048;28;20120;-82
2022/06/23 06:16:43;;;;;;;5.25;4.75;;;;;;;14.32;81.53;99973.88;5056211;28;20055;-83
2022/06/23 06:19:17;;;;;;;7.03;5.45;;;;;;;14.26;81.97;99970.13;5031483;28;20444;-83
2022/06/23 06:21:44;;;;;;;7.07;5.38;;;;;;;14.22;82.40;99974.13;5073004;28;20028;-82
2022/06/23 06:24:20;;;;;;;5.35;4.85;;;;;;;14.23;82.46;99969.66;5056590;28;20060;-83
2022/06/23 06:26:50;;;;;;;5.88;5.30;;;;;;;14.29;82.69;99970.75;5056298;28;20411;-83
2022/06/23 06:29:31;;;;;;;6.05;4.93;;;;;;;14.31;82.53;99969.59;5073766;28;20481;-83
2022/06/23 06:32:22;;;;;;;8.65;4.95;;;;;;;14.35;82.61;99967.41;5012076;28;20047;-83
2022/06/23 06:34:53;;;;;;;6.32;5.43;;;;;;;14.43;82.54;99963.84;5071681;28;20055;-83
2022/06/23 06:37:21;;;;;;;7.10;5.32;;;;;;;14.50;82.37;99968.25;5039391;28;20028;-83
2022/06/23 06:39:53;;;;;;;6.63;5.80;;;;;;;14.56;82.14;99968.50;5052582;28;20174;-83
2022/06/23 06:42:24;;;;;;;7.00;6.13;;;;;;;14.52;82.13;99966.19;5051540;28;20033;-83
2022/06/23 06:44:54;;;;;;;11.18;6.50;;;;;;;14.48;82.55;99967.59;5073792;28;20024;-83
2022/06/23 06:47:24;;;;;;;8.88;6.82;;;;;;;14.46;82.63;99968.78;5055921;28;20033;-83
2022/06/23 06:49:53;;;;;;;7.90;7.07;;;;;;;14.48;82.72;99974.72;5039574;28;20112;-83
2022/06/23 06:52:19;;;;;;;8.18;7.13;;;;;;;14.53;82.68;99983.00;5073334;28;20043;-82
2022/06/23 06:54:57;;;;;;;14.98;8.68;;;;;;;14.53;83.09;99988.31;5039437;28;20481;-82
2022/06/23 06:57:31;;;;;;;11.73;8.25;;;;;;;14.55;83.26;99981.00;5033075;28;20392;-83
2022/06/23 07:00:14;;;;;;;9.68;7.85;;;;;;;14.58;83.24;99979.78;5055704;28;20036;-83
2022/06/23 07:02:52;;;;;;;10.98;7.88;;;;;;;14.63;83.25;99972.94;5073482;28;20056;-83
2022/06/23 07:05:42;;;;;;;11.10;8.90;;;;;;;14.60;83.13;99980.44;5073091;28;20470;-83
2022/06/23 07:08:22;;;;;;;9.50;7.85;;;;;;;14.62;83.36;99978.44;5051396;28;20443;-83
2022/06/23 07:10:56;;;;;;;12.05;9.02;;;;;;;14.61;83.84;99974.94;5072078;28;20071;-83
2022/06/23 07:13:33;;;;;;;20.13;10.50;;;;;;;14.58;83.73;99971.81;5038529;28;20040;-83
2022/06/23 07:16:06;;;;;;;13.57;10.82;;;;;;;14.57;83.94;99970.97;5066254;28;20025;-83
2022/06/23 07:19:15;;;;;;;16.08;11.02;;;;;;;14.58;84.03;99974.47;5055812;28;20044;-83
2022/06/23 07:21:50;;;;;;;14.45;10.23;;;;;;;14.62;84.16;99971.25;5045596;28;20530;-83
2022/06/23 07:24:28;;;;;;;14.88;11.20;;;;;;;14.69;84.24;99970.53;5056202;28;20481;-83
2022/06/23 07:27:06;;;;;;;13.60;9.77;;;;;;;14.62;84.17;99957.97;5039796;28;20610;-81
2022/06/23 07:29:53;;;;;;;11.40;9.10;;;;;;;14.64;84.61;99957.78;5069635;28;20051;-81
2022/06/23 07:32:45;;;;;;;11.65;9.15;;;;;;;14.66;84.53;99957.59;5039643;28;20036;-82
2022/06/23 07:35:26;;;;;;;12.55;8.75;;;;;;;14.74;84.67;99954.84;5061049;28;20060;-82
2022/06/23 07:38:04;;;;;;;12.35;8.82;;;;;;;14.72;84.63;99948.88;5050168;28;20029;-82
2022/06/23 07:40:37;;;;;;;11.10;8.27;;;;;;;14.74;84.66;99947.69;5052729;28;20481;-82
2022/06/23 07:43:27;;;;;;;11.18;9.10;;;;;;;14.70;84.48;99951.72;5050905;28;20033;-82
2022/06/23 07:46:01;;;;;;;11.27;8.65;;;;;;;14.60;84.79;99956.50;5043506;28;20030;-82
2022/06/23 07:48:31;;;;;;;9.00;7.60;;;;;;;14.56;84.93;99948.06;5044300;28;20029;-82
2022/06/23 07:50:58;;;;;;;8.57;7.47;;;;;;;14.56;85.28;99947.22;5045151;28;20053;-80
2022/06/23 07:53:40;;;;;;;7.45;6.70;;;;;;;14.58;85.10;99955.84;5055822;28;20074;-81
2022/06/23 07:56:08;;;;;;;8.45;6.70;;;;;;;14.60;85.15;99953.84;5045015;28;20032;-81
2022/06/23 07:58:42;;;;;;;7.75;6.07;;;;;;;14.57;84.98;99946.22;5065136;28;20037;-82
2022/06/23 08:01:17;;;;;;;6.57;5.88;;;;;;;14.57;85.04;99946.22;5045305;28;20401;-81
2022/06/23 08:04:05;;;;;;;7.57;5.70;;;;;;;14.59;85.10;99946.84;5052282;28;20033;-80
2022/06/23 08:06:33;;;;;;;6.60;5.85;;;;;;;14.65;85.02;99948.81;5056874;28;20033;-81
2022/06/23 08:09:04;;;;;;;7.00;5.40;;;;;;;14.76;84.50;99943.00;5032928;28;20051;-81
2022/06/23 08:14:26;;;;;;;6.75;5.63;;;;;;;14.89;84.17;99933.59;5047464;28;20032;-82
2022/06/23 08:16:52;;;;;;;8.48;7.15;;;;;;;15.02;83.87;99937.44;5049884;28;20055;-82
2022/06/23 08:19:35;;;;;;;7.93;5.95;;;;;;;15.09;83.37;99931.16;5051483;28;20111;-83
2022/06/23 08:22:19;;;;;;;8.02;6.43;;;;;;;15.14;83.14;99938.59;5049629;28;20037;-83
2022/06/23 08:24:48;;;;;;;8.30;6.78;;;;;;;15.25;83.40;99938.13;5029927;28;20514;-82
2022/06/23 08:27:18;;;;;;;8.00;6.85;;;;;;;15.35;83.07;99937.78;5066317;28;20796;-83
2022/06/23 08:29:58;;;;;;;8.15;6.75;;;;;;;15.42;82.72;99932.53;5031838;28;20032;-82
2022/06/23 08:32:24;;;;;;;7.72;6.93;;;;;;;15.47;82.52;99931.97;5027314;28;20118;-83
2022/06/23 08:35:00;;;;;;;8.13;6.68;;;;;;;15.48;82.38;99923.78;5051473;28;20488;-83
2022/06/23 08:37:31;;;;;;;9.60;7.00;;;;;;;15.50;82.43;99923.59;5061615;28;20119;-83
2022/06/23 08:40:07;;;;;;;9.95;7.65;;;;;;;15.56;82.36;99930.81;5049414;28;20523;-83
2022/06/23 08:42:57;;;;;;;6.80;6.20;;;;;;;15.57;82.30;99921.84;5049933;28;20059;-82
2022/06/23 08:45:25;;;;;;;6.63;5.93;;;;;;;15.60;82.54;99924.13;5068132;28;20040;-82
2022/06/23 08:48:15;;;;;;;6.90;6.22;;;;;;;15.70;82.31;99925.63;5065213;28;20024;-82
2022/06/23 08:51:00;;;;;;;7.68;6.57;;;;;;;15.80;82.17;99926.13;5067879;28;20120;-82
2022/06/23 08:53:53;;;;;;;8.32;5.88;;;;;;;15.90;81.62;99924.97;5040044;28;20496;-82
2022/06/23 08:56:27;;;;;;;7.05;5.75;;;;;;;15.95;81.21;99915.41;5055815;28;20040;-83
2022/06/23 08:59:00;;;;;;;6.68;5.78;;;;;;;15.97;81.22;99915.19;5060055;28;20036;-83
2022/06/23 09:01:37;;;;;;;7.05;5.50;;;;;;;15.99;80.91;99915.84;5049170;28;20060;-82
2022/06/23 09:04:31;;;;;;;9.00;6.47;;;;;;;15.99;80.68;99913.19;5057987;28;20119;-83
2022/06/23 09:07:07;;;;;;;8.20;6.10;;;;;;;16.02;80.72;99901.31;5058897;28;20429;-82
2022/06/23 09:09:58;;;;;;;6.13;5.30;;;;;;;16.08;80.59;99897.88;5048530;28;20032;-83
2022/06/23 09:12:38;;;;;;;4.68;4.28;;;;;;;16.21;80.51;99894.47;5038732;28;20051;-83
2022/06/23 09:15:36;;;;;;;6.85;4.63;;;;;;;16.31;79.96;99889.63;5016598;28;20040;-82
2022/06/23 09:18:44;;;;;;;4.65;3.75;;;;;;;16.50;79.64;99884.56;5002839;28;20044;-83
2022/06/23 09:21:21;;;;;;;7.82;4.32;;;;;;;16.65;79.56;99881.78;5043574;28;20033;-83
2022/06/23 09:24:08;;;;;;;4.80;4.13;;;;;;;16.86;78.89;99874.69;5067802;28;20040;-83
2022/06/23 09:26:40;;;;;;;7.70;4.07;;;;;;;17.08;78.65;99869.22;5062282;28;20044;-82
2022/06/23 09:29:29;;;;;;;4.60;3.55;;;;;;;17.29;77.54;99870.09;5051758;28;20471;-83
2022/06/23 09:32:06;;;;;;;4.95;4.13;;;;;;;17.42;76.94;99863.94;5064166;28;20524;-82
2022/06/23 09:34:45;;;;;;;9.73;4.15;;;;;;;17.53;75.83;99858.00;5044672;28;20482;-82
2022/06/23 09:37:47;;;;;;;6.75;3.63;;;;;;;17.63;75.63;99860.25;5050887;28;20053;-82
2022/06/23 09:40:27;;;;;;;5.40;3.67;;;;;;;17.67;75.71;99855.31;5062215;28;20078;-82
2022/06/23 09:42:56;;;;;;;5.07;3.72;;;;;;;17.65;75.10;99855.53;5065259;28;20071;-83
2022/06/23 09:45:46;;;;;;;3.58;3.22;;;;;;;17.65;75.16;99847.50;5050248;28;20044;-83
2022/06/23 09:48:14;;;;;;;9.43;4.30;;;;;;;17.59;74.67;99843.81;5034485;28;20055;-83
2022/06/23 09:50:46;;;;;;;4.40;4.00;;;;;;;17.51;74.74;99844.03;5027161;28;20440;-83
2022/06/23 09:53:12;;;;;;;5.43;3.30;;;;;;;17.56;75.02;99848.75;5057309;28;20489;-83
2022/06/23 09:56:09;;;;;;;4.82;3.70;;;;;;;17.58;74.73;99842.16;5033979;28;20039;-81
2022/06/23 09:58:45;;;;;;;9.57;3.30;;;;;;;17.61;74.54;99846.28;5068130;28;20396;-82
2022/06/23 10:01:31;;;;;;;5.00;3.70;;;;;;;17.54;74.65;99835.59;5052350;28;20098;-82
2022/06/23 10:03:57;;;;;;;;;;;;;;;17.36;75.16;99831.69;5053487;28;20055;-83
2022/06/23 10:06:32;;;;;;;3.80;3.50;;;;;;;17.46;75.10;99836.63;5029815;28;19912;-82
2022/06/23 10:09:16;;;;;;;4.05;3.63;;;;;;;17.52;74.83;99826.94;5056631;28;20064;-82
2022/06/23 10:12:23;;;;;;;4.47;3.67;;;;;;;17.48;74.57;99823.06;5032830;28;20119;-83
2022/06/23 10:15:09;;;;;;;3.17;2.88;;;;;;;17.58;74.53;99818.09;5049916;28;20067;-83
2022/06/23 10:18:03;;;;;;;3.92;2.92;;;;;;;17.56;73.75;99812.16;5018274;28;20044;-81
2022/06/23 10:21:00;;;;;;;3.85;3.20;;;;;;;17.65;73.28;99812.75;5072350;28;20118;-83
2022/06/23 10:23:41;;;;;;;;;;;;;;;17.63;73.83;99797.97;5048959;28;20086;-82
2022/06/23 10:26:13;;;;;;;5.28;3.70;;;;;;;17.91;73.28;99797.72;5039700;28;19912;-83
2022/06/23 10:29:00;;;;;;;6.00;3.08;;;;;;;18.06;72.30;99797.47;5072015;28;20487;-82
2022/06/23 10:31:32;;;;;;;3.15;2.95;;;;;;;18.18;71.92;99794.19;5063090;28;20043;-81
2022/06/23 10:34:18;;;;;;;5.63;3.00;;;;;;;18.30;71.61;99799.72;5072944;28;20044;-81
2022/06/23 10:37:19;;;;;;;4.15;3.17;;;;;;;18.45;70.73;99794.06;5043229;28;20053;-81
2022/06/23 10:39:54;;;;;;;4.15;2.78;;;;;;;18.58;70.48;99793.19;5051175;28;20048;-82
2022/06/23 10:42:41;;;;;;;8.07;3.53;;;;;;;18.60;70.15;99794.63;5037786;28;20036;-81
2022/06/23 10:45:16;;;;;;;3.33;3.00;;;;;;;18.68;70.26;99787.38;5023179;28;20044;-82
2022/06/23 10:47:45;;;;;;;3.27;2.80;;;;;;;18.71;69.70;99785.09;5056815;28;20115;-82
2022/06/23 10:50:41;;;;;;;4.00;2.63;;;;;;;18.69;68.83;99771.13;5069011;28;20468;-83
2022/06/23 10:53:34;;;;;;;7.88;2.83;;;;;;;18.79;69.14;99783.22;5052777;28;20032;-84
2022/06/23 10:56:11;;;;;;;5.20;2.88;;;;;;;18.89;68.54;99770.16;5055908;28;20074;-84
2022/06/23 10:58:49;;;;;;;4.85;2.67;;;;;;;19.14;68.30;99771.25;5028041;28;20028;-82
2022/06/23 11:01:36;;;;;;;4.20;2.88;;;;;;;19.39;67.31;99759.72;5054535;28;20115;-83
2022/06/23 11:04:11;;;;;;;3.58;2.78;;;;;;;19.49;67.12;99764.56;5072514;28;20032;-84
2022/06/23 11:06:40;;;;;;;7.40;3.42;;;;;;;19.45;66.65;99761.50;5051885;28;20119;-84
2022/06/23 11:09:32;;;;;;;2.85;2.65;;;;;;;19.38;65.99;99766.13;5054423;28;20036;-84
2022/06/23 11:12:09;;;;;;;4.18;2.60;;;;;;;19.40;66.50;99766.72;5071902;28;20040;-83
2022/06/23 11:14:56;;;;;;;2.03;1.90;;;;;;;19.46;66.02;99758.59;5042528;28;20438;-84
2022/06/23 11:17:52;;;;;;;5.68;2.47;;;;;;;19.52;65.66;99761.44;5072048;28;20085;-83
2022/06/23 11:20:27;;;;;;;4.70;2.58;;;;;;;19.52;65.86;99751.56;5036248;28;20404;-82
2022/06/23 11:23:05;;;;;;;7.65;2.25;;;;;;;19.63;65.35;99747.31;5071157;28;20031;-83
2022/06/23 11:25:53;;;;;;;3.92;2.17;;;;;;;19.76;65.11;99753.59;5043294;28;20995;-83
2022/06/23 11:28:29;;;;;;;2.50;2.28;;;;;;;19.86;64.70;99743.16;5024822;28;20487;-84
2022/06/23 11:30:58;;;;;;;3.45;2.20;;;;;;;20.01;64.29;99740.09;5071696;28;20032;-84
2022/06/23 11:34:15;;;;;;;2.42;2.00;;;;;;;20.25;62.88;99734.06;5069964;28;20210;-84
2022/06/23 11:37:02;;;;;;;5.85;2.33;;;;;;;20.39;63.56;99732.00;5022645;28;20538;-84
2022/06/23 11:39:47;;;;;;;5.80;2.60;;;;;;;20.53;63.19;99736.16;5051288;28;20036;-84
2022/06/23 11:42:24;;;;;;;6.05;2.50;;;;;;;20.61;62.89;99726.97;5034164;28;20037;-84
2022/06/23 11:44:59;;;;;;;4.93;2.03;;;;;;;20.62;61.75;99725.94;5049088;28;20481;-84
2022/06/23 11:47:53;;;;;;;4.93;1.75;;;;;;;20.50;61.25;99722.38;5051276;28;20459;-84
2022/06/23 11:50:19;;;;;;;2.53;1.95;;;;;;;20.37;61.85;99716.13;5040258;28;20039;-82
2022/06/23 11:53:17;;;;;;;5.25;2.25;;;;;;;20.40;61.15;99714.88;5049424;28;20126;-82
2022/06/23 11:56:12;;;;;;;4.20;1.92;;;;;;;20.28;61.43;99712.13;4999349;28;20037;-85
2022/06/23 11:59:08;;;;;;;3.65;2.13;;;;;;;20.35;61.25;99715.56;5023055;28;20048;-84
2022/06/23 12:01:33;;;;;;;5.07;2.03;;;;;;;20.40;61.56;99707.63;5053414;28;20034;-82
2022/06/23 12:04:30;;;;;;;2.47;1.63;;;;;;;20.63;61.36;99699.88;5013178;28;20036;-81
2022/06/23 12:07:20;;;;;;;6.70;2.20;;;;;;;20.94;60.70;99700.69;5065134;28;20490;-85
2022/06/23 12:10:05;;;;;;;3.05;2.08;;;;;;;21.12;60.73;99688.19;5030936;28;20037;-84
2022/06/23 12:12:33;;;;;;;2.80;1.90;;;;;;;21.30;60.14;99687.25;5048285;28;20120;-84
2022/06/23 12:15:03;;;;;;;3.20;1.90;;;;;;;21.48;59.67;99690.84;5049852;28;20029;-83
2022/06/23 12:17:43;;;;;;;3.13;1.92;;;;;;;21.57;59.09;99681.38;5033118;28;20442;-84
2022/06/23 12:20:23;;;;;;;4.07;1.90;;;;;;;21.71;58.81;99678.44;5048200;28;20037;-83
2022/06/23 12:22:55;;;;;;;1.95;1.60;;;;;;;21.71;58.59;99673.06;5043681;28;20029;-84
2022/06/23 12:25:39;;;;;;;2.97;1.20;;;;;;;21.78;58.03;99669.22;5053438;28;20067;-84
2022/06/23 12:28:33;;;;;;;2.75;1.70;;;;;;;21.87;57.81;99669.63;5045175;28;20047;-83
2022/06/23 12:31:18;;;;;;;2.30;1.70;;;;;;;21.95;56.91;99662.25;5039275;28;20033;-84
2022/06/23 12:34:06;;;;;;;2.78;1.80;;;;;;;21.78;57.60;99660.31;5024715;28;20432;-85
2022/06/23 12:37:02;;;;;;;12.88;1.98;;;;;;;21.72;57.96;99662.06;5061082;28;20037;-82
2022/06/23 12:39:38;;;;;;;2.88;1.90;;;;;;;21.68;58.11;99667.09;5042734;28;20041;-82